Terminal Aerodrome Forecast
Issued by NWS

Home | Current Version | Previous Version | Text Only | Print | Product List | Glossary On
Versions: 1 2 3 4 5 6 7 8 9 10 11 12 13 14 15 16 17 18 19
000
FTUS43 KICT 200926 AAA
TAFSLN
TAF AMD
KSLN 200926Z 2009/2106 18008KT P6SM VCSH BKN070
      TEMPO 2009/2013 06012G22KT 6SM -SHRA OVC070
     FM201400 15009KT P6SM SCT070
     FM201700 19014G20KT P6SM SCT070=

USA.gov is the U.S. government's official web portal to all federal, state and local government web resources and services.